Terminal Aerodrome Forecast
Issued by NWS

Home | Current Version | Previous Version | Text Only | Print | Product List | Glossary On
Versions: 1 2 3 4 5 6 7 8 9 10 11 12 13 14
000
FTUS44 KEPZ 242300
TAFTCS
TAF
KTCS 242327Z 2500/2524 26020G25KT P6SM SCT090
     FM250300 27010KT P6SM SCT250
     FM251700 21010G15KT P6SM FEW060 SCT200=

USA.gov is the U.S. government's official web portal to all federal, state and local government web resources and services.